sensor_id;sensor_type;location;lat;lon;timestamp;pressure;altitude;pressure_sealevel;temperature;humidity
76940;BME280;65885;55.848;35.916;2023-05-07T00:01:05;100420.31;;;-1.12;43.19
76940;BME280;65885;55.848;35.916;2023-05-07T00:03:32;100430.41;;;-1.21;42.81
76940;BME280;65885;55.848;35.916;2023-05-07T00:06:00;100426.88;;;-1.26;42.87
76940;BME280;65885;55.848;35.916;2023-05-07T00:08:27;100419.31;;;-1.18;42.51
76940;BME280;65885;55.848;35.916;2023-05-07T00:10:54;100429.09;;;-1.02;42.12
76940;BME280;65885;55.848;35.916;2023-05-07T00:13:22;100428.59;;;-0.84;41.65
76940;BME280;65885;55.848;35.916;2023-05-07T00:15:51;100429.72;;;-0.71;41.12
76940;BME280;65885;55.848;35.916;2023-05-07T00:18:18;100427.16;;;-0.70;41.73
76940;BME280;65885;55.848;35.916;2023-05-07T00:20:48;100427.84;;;-0.78;41.09
76940;BME280;65885;55.848;35.916;2023-05-07T00:23:15;100429.28;;;-0.93;41.04
76940;BME280;65885;55.848;35.916;2023-05-07T00:25:43;100429.81;;;-1.07;41.54
76940;BME280;65885;55.848;35.916;2023-05-07T00:28:10;100429.50;;;-1.23;42.53
76940;BME280;65885;55.848;35.916;2023-05-07T00:30:37;100435.13;;;-1.39;41.15
76940;BME280;65885;55.848;35.916;2023-05-07T00:33:06;100433.94;;;-1.53;41.48
76940;BME280;65885;55.848;35.916;2023-05-07T00:35:33;100434.53;;;-1.65;41.08
76940;BME280;65885;55.848;35.916;2023-05-07T00:38:01;100434.22;;;-1.79;41.26
76940;BME280;65885;55.848;35.916;2023-05-07T00:40:28;100430.50;;;-1.90;41.19
76940;BME280;65885;55.848;35.916;2023-05-07T00:42:56;100452.53;;;-2.00;41.08
76940;BME280;65885;55.848;35.916;2023-05-07T00:45:26;100441.16;;;-2.09;41.48
76940;BME280;65885;55.848;35.916;2023-05-07T00:47:55;100446.13;;;-2.15;41.54
76940;BME280;65885;55.848;35.916;2023-05-07T00:50:24;100445.44;;;-2.10;42.23
76940;BME280;65885;55.848;35.916;2023-05-07T00:52:52;100453.56;;;-1.93;42.57
76940;BME280;65885;55.848;35.916;2023-05-07T00:55:21;100445.50;;;-1.72;42.13
76940;BME280;65885;55.848;35.916;2023-05-07T00:57:49;100452.84;;;-1.51;42.40
76940;BME280;65885;55.848;35.916;2023-05-07T01:00:18;100452.47;;;-1.30;41.63
76940;BME280;65885;55.848;35.916;2023-05-07T01:02:45;100451.16;;;-1.13;41.37
76940;BME280;65885;55.848;35.916;2023-05-07T01:05:15;100443.78;;;-0.98;41.38
76940;BME280;65885;55.848;35.916;2023-05-07T01:07:46;100452.63;;;-0.84;41.15
76940;BME280;65885;55.848;35.916;2023-05-07T01:10:14;100451.13;;;-0.74;40.70
76940;BME280;65885;55.848;35.916;2023-05-07T01:12:43;100453.88;;;-0.66;40.67
76940;BME280;65885;55.848;35.916;2023-05-07T01:15:13;100453.06;;;-0.62;40.68
76940;BME280;65885;55.848;35.916;2023-05-07T01:17:42;100456.44;;;-0.66;40.77
76940;BME280;65885;55.848;35.916;2023-05-07T01:20:10;100454.44;;;-0.79;40.09
76940;BME280;65885;55.848;35.916;2023-05-07T01:22:40;100457.53;;;-0.97;39.95
76940;BME280;65885;55.848;35.916;2023-05-07T01:25:07;100454.53;;;-1.16;41.21
76940;BME280;65885;55.848;35.916;2023-05-07T01:27:35;100454.97;;;-1.35;40.71
76940;BME280;65885;55.848;35.916;2023-05-07T01:30:03;100457.09;;;-1.53;40.96
76940;BME280;65885;55.848;35.916;2023-05-07T01:32:37;100463.53;;;-1.71;41.27
76940;BME280;65885;55.848;35.916;2023-05-07T01:35:07;100464.03;;;-1.85;41.32
76940;BME280;65885;55.848;35.916;2023-05-07T01:37:38;100466.25;;;-1.99;42.61
76940;BME280;65885;55.848;35.916;2023-05-07T01:40:07;100471.22;;;-2.05;43.23
76940;BME280;65885;55.848;35.916;2023-05-07T01:42:35;100473.09;;;-2.00;42.95
76940;BME280;65885;55.848;35.916;2023-05-07T01:45:04;100472.66;;;-1.83;44.21
76940;BME280;65885;55.848;35.916;2023-05-07T01:47:32;100474.00;;;-1.64;44.29
76940;BME280;65885;55.848;35.916;2023-05-07T01:49:59;100472.81;;;-1.43;44.28
76940;BME280;65885;55.848;35.916;2023-05-07T01:52:29;100478.34;;;-1.24;44.04
76940;BME280;65885;55.848;35.916;2023-05-07T01:54:59;100480.53;;;-1.05;43.23
76940;BME280;65885;55.848;35.916;2023-05-07T01:57:27;100482.59;;;-0.89;43.60
76940;BME280;65885;55.848;35.916;2023-05-07T01:59:54;100482.88;;;-0.75;43.32
76940;BME280;65885;55.848;35.916;2023-05-07T02:02:21;100484.84;;;-0.62;43.05
76940;BME280;65885;55.848;35.916;2023-05-07T02:04:49;100489.41;;;-0.48;42.30
76940;BME280;65885;55.848;35.916;2023-05-07T02:07:16;100487.06;;;-0.38;42.26
76940;BME280;65885;55.848;35.916;2023-05-07T02:09:43;100492.41;;;-0.29;42.08
76940;BME280;65885;55.848;35.916;2023-05-07T02:12:12;100493.25;;;-0.28;41.93
76940;BME280;65885;55.848;35.916;2023-05-07T02:14:40;100498.16;;;-0.40;41.56
76940;BME280;65885;55.848;35.916;2023-05-07T02:17:07;100497.84;;;-0.56;41.23
76940;BME280;65885;55.848;35.916;2023-05-07T02:19:35;100495.78;;;-0.73;41.27
76940;BME280;65885;55.848;35.916;2023-05-07T02:22:03;100498.78;;;-0.93;41.58
76940;BME280;65885;55.848;35.916;2023-05-07T02:24:31;100500.13;;;-1.10;41.51
76940;BME280;65885;55.848;35.916;2023-05-07T02:26:58;100502.31;;;-1.27;42.12
76940;BME280;65885;55.848;35.916;2023-05-07T02:29:27;100504.53;;;-1.42;41.97
76940;BME280;65885;55.848;35.916;2023-05-07T02:31:54;100508.50;;;-1.55;41.90
76940;BME280;65885;55.848;35.916;2023-05-07T02:34:22;100510.88;;;-1.62;42.51
76940;BME280;65885;55.848;35.916;2023-05-07T02:36:49;100513.63;;;-1.56;43.07
76940;BME280;65885;55.848;35.916;2023-05-07T02:39:16;100520.03;;;-1.39;43.46
76940;BME280;65885;55.848;35.916;2023-05-07T02:41:44;100519.66;;;-1.18;42.94
76940;BME280;65885;55.848;35.916;2023-05-07T02:44:11;100512.47;;;-0.95;43.85
76940;BME280;65885;55.848;35.916;2023-05-07T02:46:40;100511.22;;;-0.75;43.27
76940;BME280;65885;55.848;35.916;2023-05-07T02:49:08;100513.34;;;-0.54;42.86
76940;BME280;65885;55.848;35.916;2023-05-07T02:51:35;100511.94;;;-0.38;42.57
76940;BME280;65885;55.848;35.916;2023-05-07T02:54:02;100523.47;;;-0.21;43.57
76940;BME280;65885;55.848;35.916;2023-05-07T02:56:30;100523.66;;;-0.10;42.61
76940;BME280;65885;55.848;35.916;2023-05-07T02:58:57;100522.78;;;-0.11;42.83
76940;BME280;65885;55.848;35.916;2023-05-07T03:01:24;100524.34;;;-0.20;42.62
76940;BME280;65885;55.848;35.916;2023-05-07T03:03:54;100528.38;;;-0.33;42.54
76940;BME280;65885;55.848;35.916;2023-05-07T03:06:21;100517.75;;;-0.48;42.18
76940;BME280;65885;55.848;35.916;2023-05-07T03:08:48;100526.94;;;-0.61;42.54
76940;BME280;65885;55.848;35.916;2023-05-07T03:11:16;100522.41;;;-0.73;43.31
76940;BME280;65885;55.848;35.916;2023-05-07T03:13:43;100522.22;;;-0.82;43.95
76940;BME280;65885;55.848;35.916;2023-05-07T03:16:11;100523.75;;;-0.90;44.04
76940;BME280;65885;55.848;35.916;2023-05-07T03:18:38;100530.50;;;-0.95;43.98
76940;BME280;65885;55.848;35.916;2023-05-07T03:21:07;100536.53;;;-0.93;44.94
76940;BME280;65885;55.848;35.916;2023-05-07T03:23:34;100533.41;;;-0.80;44.65
76940;BME280;65885;55.848;35.916;2023-05-07T03:26:02;100545.03;;;-0.60;44.03
76940;BME280;65885;55.848;35.916;2023-05-07T03:28:29;100542.06;;;-0.36;44.16
76940;BME280;65885;55.848;35.916;2023-05-07T03:30:57;100552.00;;;-0.12;44.92
76940;BME280;65885;55.848;35.916;2023-05-07T03:33:24;100555.00;;;0.11;44.87
76940;BME280;65885;55.848;35.916;2023-05-07T03:35:51;100549.38;;;0.31;43.69
76940;BME280;65885;55.848;35.916;2023-05-07T03:38:20;100549.69;;;0.50;43.12
76940;BME280;65885;55.848;35.916;2023-05-07T03:40:47;100549.91;;;0.63;42.96
76940;BME280;65885;55.848;35.916;2023-05-07T03:43:15;100545.66;;;0.66;42.97
76940;BME280;65885;55.848;35.916;2023-05-07T03:45:42;100552.50;;;0.63;43.46
76940;BME280;65885;55.848;35.916;2023-05-07T03:48:09;100558.41;;;0.57;43.59
76940;BME280;65885;55.848;35.916;2023-05-07T03:50:37;100554.00;;;0.51;44.25
76940;BME280;65885;55.848;35.916;2023-05-07T03:53:05;100567.72;;;0.49;45.15
76940;BME280;65885;55.848;35.916;2023-05-07T03:55:34;100572.00;;;0.47;45.63
76940;BME280;65885;55.848;35.916;2023-05-07T03:58:01;100569.44;;;0.48;46.42
76940;BME280;65885;55.848;35.916;2023-05-07T04:00:28;100576.38;;;0.52;46.28
76940;BME280;65885;55.848;35.916;2023-05-07T04:02:59;100574.75;;;0.58;47.32
76940;BME280;65885;55.848;35.916;2023-05-07T04:05:27;100571.44;;;0.65;47.36
76940;BME280;65885;55.848;35.916;2023-05-07T04:07:54;100568.22;;;0.78;48.83
76940;BME280;65885;55.848;35.916;2023-05-07T04:10:22;100567.75;;;1.03;47.71
76940;BME280;65885;55.848;35.916;2023-05-07T04:12:51;100576.03;;;1.40;47.92
76940;BME280;65885;55.848;35.916;2023-05-07T04:15:18;100569.66;;;1.77;47.21
76940;BME280;65885;55.848;35.916;2023-05-07T04:17:46;100571.81;;;2.15;47.03
76940;BME280;65885;55.848;35.916;2023-05-07T04:20:15;100580.75;;;2.49;47.17
76940;BME280;65885;55.848;35.916;2023-05-07T04:22:43;100577.59;;;2.77;46.65
76940;BME280;65885;55.848;35.916;2023-05-07T04:25:11;100578.66;;;3.04;45.95
76940;BME280;65885;55.848;35.916;2023-05-07T04:27:38;100583.19;;;3.32;44.92
76940;BME280;65885;55.848;35.916;2023-05-07T04:30:08;100587.66;;;3.61;44.99
76940;BME280;65885;55.848;35.916;2023-05-07T04:32:36;100589.50;;;3.85;44.27
76940;BME280;65885;55.848;35.916;2023-05-07T04:35:04;100588.69;;;3.98;44.50
76940;BME280;65885;55.848;35.916;2023-05-07T04:37:32;100599.97;;;4.02;43.85
76940;BME280;65885;55.848;35.916;2023-05-07T04:39:59;100598.25;;;4.01;43.95
76940;BME280;65885;55.848;35.916;2023-05-07T04:42:31;100603.41;;;3.98;44.14
76940;BME280;65885;55.848;35.916;2023-05-07T04:44:59;100599.94;;;3.97;44.52
76940;BME280;65885;55.848;35.916;2023-05-07T04:47:28;100598.25;;;4.05;44.64
76940;BME280;65885;55.848;35.916;2023-05-07T04:49:56;100600.84;;;4.14;45.92
76940;BME280;65885;55.848;35.916;2023-05-07T04:52:24;100604.34;;;4.23;45.49
76940;BME280;65885;55.848;35.916;2023-05-07T04:54:51;100600.91;;;4.30;46.03
76940;BME280;65885;55.848;35.916;2023-05-07T04:57:18;100606.13;;;4.37;46.29
76940;BME280;65885;55.848;35.916;2023-05-07T04:59:46;100605.28;;;4.44;45.82
76940;BME280;65885;55.848;35.916;2023-05-07T05:02:14;100600.09;;;4.51;45.71
76940;BME280;65885;55.848;35.916;2023-05-07T05:04:43;100606.19;;;4.56;45.90
76940;BME280;65885;55.848;35.916;2023-05-07T05:07:10;100606.16;;;4.60;45.70
76940;BME280;65885;55.848;35.916;2023-05-07T05:09:39;100609.63;;;4.67;45.52
76940;BME280;65885;55.848;35.916;2023-05-07T05:12:06;100606.19;;;4.72;46.02
76940;BME280;65885;55.848;35.916;2023-05-07T05:14:34;100614.00;;;4.79;45.89
76940;BME280;65885;55.848;35.916;2023-05-07T05:17:01;100605.31;;;4.90;45.64
76940;BME280;65885;55.848;35.916;2023-05-07T05:19:29;100605.31;;;5.13;45.42
76940;BME280;65885;55.848;35.916;2023-05-07T05:21:58;100604.44;;;5.39;44.53
76940;BME280;65885;55.848;35.916;2023-05-07T05:24:26;100601.78;;;5.68;44.44
76940;BME280;65885;55.848;35.916;2023-05-07T05:26:54;100600.84;;;5.98;43.62
76940;BME280;65885;55.848;35.916;2023-05-07T05:29:21;100605.06;;;6.25;43.18
76940;BME280;65885;55.848;35.916;2023-05-07T05:31:49;100598.81;;;6.53;43.02
76940;BME280;65885;55.848;35.916;2023-05-07T05:34:16;100603.84;;;6.79;42.61
76940;BME280;65885;55.848;35.916;2023-05-07T05:36:45;100601.09;;;6.94;42.03
76940;BME280;65885;55.848;35.916;2023-05-07T05:39:14;100601.91;;;7.03;42.34
76940;BME280;65885;55.848;35.916;2023-05-07T05:41:42;100598.41;;;7.08;42.30
76940;BME280;65885;55.848;35.916;2023-05-07T05:44:09;100604.44;;;7.15;42.12
76940;BME280;65885;55.848;35.916;2023-05-07T05:46:36;100609.63;;;7.19;42.44
76940;BME280;65885;55.848;35.916;2023-05-07T05:49:03;100614.78;;;7.26;41.74
76940;BME280;65885;55.848;35.916;2023-05-07T05:51:31;100606.88;;;7.32;41.25
76940;BME280;65885;55.848;35.916;2023-05-07T05:53:58;100607.66;;;7.40;41.55
76940;BME280;65885;55.848;35.916;2023-05-07T05:56:27;100605.72;;;7.62;42.40
76940;BME280;65885;55.848;35.916;2023-05-07T05:58:54;100606.28;;;7.90;42.54
76940;BME280;65885;55.848;35.916;2023-05-07T06:01:22;100606.72;;;8.22;42.46
76940;BME280;65885;55.848;35.916;2023-05-07T06:03:50;100614.09;;;8.59;42.41
76940;BME280;65885;55.848;35.916;2023-05-07T06:06:17;100603.91;;;8.98;42.04
76940;BME280;65885;55.848;35.916;2023-05-07T06:08:45;100610.22;;;9.37;41.93
76940;BME280;65885;55.848;35.916;2023-05-07T06:11:12;100606.94;;;9.73;40.24
76940;BME280;65885;55.848;35.916;2023-05-07T06:13:41;100612.31;;;10.11;40.33
76940;BME280;65885;55.848;35.916;2023-05-07T06:16:09;100621.28;;;10.44;39.88
76940;BME280;65885;55.848;35.916;2023-05-07T06:18:36;100617.31;;;10.63;38.13
76940;BME280;65885;55.848;35.916;2023-05-07T06:21:04;100620.53;;;10.76;36.97
76940;BME280;65885;55.848;35.916;2023-05-07T06:23:32;100619.44;;;10.84;37.04
76940;BME280;65885;55.848;35.916;2023-05-07T06:25:59;100606.91;;;10.97;35.78
76940;BME280;65885;55.848;35.916;2023-05-07T06:28:27;100619.03;;;11.01;34.76
76940;BME280;65885;55.848;35.916;2023-05-07T06:31:11;100616.66;;;11.28;36.05
76940;BME280;65885;55.848;35.916;2023-05-07T06:33:38;100611.47;;;11.59;36.89
76940;BME280;65885;55.848;35.916;2023-05-07T06:36:06;100621.13;;;11.91;36.28
76940;BME280;65885;55.848;35.916;2023-05-07T06:38:34;100620.50;;;12.12;35.08
76940;BME280;65885;55.848;35.916;2023-05-07T06:41:01;100619.28;;;12.24;33.33
76940;BME280;65885;55.848;35.916;2023-05-07T06:43:28;100621.56;;;12.36;34.23
76940;BME280;65885;55.848;35.916;2023-05-07T06:45:57;100619.31;;;12.52;33.34
76940;BME280;65885;55.848;35.916;2023-05-07T06:48:26;100621.59;;;12.64;32.78
76940;BME280;65885;55.848;35.916;2023-05-07T06:50:56;100622.44;;;12.65;31.56
76940;BME280;65885;55.848;35.916;2023-05-07T06:53:25;100618.91;;;12.66;31.18
76940;BME280;65885;55.848;35.916;2023-05-07T06:55:54;100627.03;;;12.58;30.17
76940;BME280;65885;55.848;35.916;2023-05-07T06:58:22;100626.75;;;12.39;30.67
76940;BME280;65885;55.848;35.916;2023-05-07T07:00:51;100625.59;;;12.18;29.56
76940;BME280;65885;55.848;35.916;2023-05-07T07:03:22;100630.66;;;11.95;28.74
76940;BME280;65885;55.848;35.916;2023-05-07T07:05:53;100624.25;;;11.71;29.46
76940;BME280;65885;55.848;35.916;2023-05-07T07:08:22;100628.25;;;11.53;30.28
76940;BME280;65885;55.848;35.916;2023-05-07T07:10:49;100617.19;;;11.40;29.87
76940;BME280;65885;55.848;35.916;2023-05-07T07:13:18;100621.66;;;11.37;30.66
76940;BME280;65885;55.848;35.916;2023-05-07T07:15:48;100619.91;;;11.37;30.71
76940;BME280;65885;55.848;35.916;2023-05-07T07:18:15;100625.25;;;11.34;30.15
76940;BME280;65885;55.848;35.916;2023-05-07T07:20:44;100614.78;;;11.31;31.01
76940;BME280;65885;55.848;35.916;2023-05-07T07:23:12;100618.44;;;11.26;30.22
76940;BME280;65885;55.848;35.916;2023-05-07T07:25:40;100617.00;;;11.14;29.59
76940;BME280;65885;55.848;35.916;2023-05-07T07:28:08;100619.03;;;11.01;30.33
76940;BME280;65885;55.848;35.916;2023-05-07T07:30:37;100626.25;;;10.93;30.86
76940;BME280;65885;55.848;35.916;2023-05-07T07:33:05;100626.56;;;10.81;31.02
76940;BME280;65885;55.848;35.916;2023-05-07T07:35:33;100621.63;;;10.67;30.44
76940;BME280;65885;55.848;35.916;2023-05-07T07:38:01;100616.41;;;10.64;31.52
76940;BME280;65885;55.848;35.916;2023-05-07T07:40:29;100618.84;;;10.73;31.73
76940;BME280;65885;55.848;35.916;2023-05-07T07:42:57;100619.28;;;10.92;31.98
76940;BME280;65885;55.848;35.916;2023-05-07T07:45:25;100614.94;;;11.27;32.34
76940;BME280;65885;55.848;35.916;2023-05-07T07:47:52;100612.97;;;11.67;32.54
76940;BME280;65885;55.848;35.916;2023-05-07T07:50:20;100621.72;;;12.01;31.40
76940;BME280;65885;55.848;35.916;2023-05-07T07:52:48;100621.06;;;12.23;29.70
76940;BME280;65885;55.848;35.916;2023-05-07T07:55:20;100626.22;;;12.56;30.82
76940;BME280;65885;55.848;35.916;2023-05-07T07:57:48;100609.28;;;12.93;30.08
76940;BME280;65885;55.848;35.916;2023-05-07T08:00:16;100583.97;;;13.42;30.25
76940;BME280;65885;55.848;35.916;2023-05-07T08:02:44;100617.19;;;13.96;29.16
76940;BME280;65885;55.848;35.916;2023-05-07T08:05:12;100610.09;;;14.44;29.19
76940;BME280;65885;55.848;35.916;2023-05-07T08:07:39;100605.34;;;14.76;28.06
76940;BME280;65885;55.848;35.916;2023-05-07T08:10:07;100611.72;;;14.92;26.71
76940;BME280;65885;55.848;35.916;2023-05-07T08:12:37;100613.44;;;14.93;27.00
76940;BME280;65885;55.848;35.916;2023-05-07T08:15:05;100613.06;;;14.81;25.72
76940;BME280;65885;55.848;35.916;2023-05-07T08:17:33;100622.88;;;14.55;25.59
76940;BME280;65885;55.848;35.916;2023-05-07T08:20:01;100610.66;;;14.29;26.42
76940;BME280;65885;55.848;35.916;2023-05-07T08:22:29;100618.53;;;14.07;26.95
76940;BME280;65885;55.848;35.916;2023-05-07T08:24:56;100605.56;;;14.01;27.38
76940;BME280;65885;55.848;35.916;2023-05-07T08:27:25;100612.41;;;14.05;27.76
76940;BME280;65885;55.848;35.916;2023-05-07T08:29:54;100605.69;;;14.22;27.99
76940;BME280;65885;55.848;35.916;2023-05-07T08:32:22;100600.22;;;14.50;28.82
76940;BME280;65885;55.848;35.916;2023-05-07T08:34:49;100597.97;;;14.84;28.90
76940;BME280;65885;55.848;35.916;2023-05-07T08:37:17;100603.47;;;15.22;27.90
76940;BME280;65885;55.848;35.916;2023-05-07T08:39:44;100605.22;;;15.64;27.96
76940;BME280;65885;55.848;35.916;2023-05-07T08:42:12;100603.47;;;16.03;26.84
76940;BME280;65885;55.848;35.916;2023-05-07T08:44:45;100599.69;;;16.47;27.98
76940;BME280;65885;55.848;35.916;2023-05-07T08:47:15;100596.72;;;16.90;27.50
76940;BME280;65885;55.848;35.916;2023-05-07T08:49:43;100592.16;;;17.29;26.23
76940;BME280;65885;55.848;35.916;2023-05-07T08:52:11;100591.63;;;17.57;25.52
76940;BME280;65885;55.848;35.916;2023-05-07T08:54:39;100596.16;;;17.55;22.69
76940;BME280;65885;55.848;35.916;2023-05-07T08:57:07;100598.66;;;17.23;21.78
76940;BME280;65885;55.848;35.916;2023-05-07T08:59:35;100601.63;;;16.81;22.14
76940;BME280;65885;55.848;35.916;2023-05-07T09:02:02;100601.13;;;16.35;22.68
76940;BME280;65885;55.848;35.916;2023-05-07T09:04:31;100601.09;;;15.97;23.18
76940;BME280;65885;55.848;35.916;2023-05-07T09:06:59;100598.41;;;15.78;23.64
76940;BME280;65885;55.848;35.916;2023-05-07T09:09:32;100609.63;;;15.84;23.55
76940;BME280;65885;55.848;35.916;2023-05-07T09:12:00;100602.25;;;16.11;24.65
76940;BME280;65885;55.848;35.916;2023-05-07T09:14:28;100600.25;;;16.53;23.15
76940;BME280;65885;55.848;35.916;2023-05-07T09:16:56;100594.00;;;16.92;23.45
76940;BME280;65885;55.848;35.916;2023-05-07T09:19:23;100589.59;;;17.27;23.31
76940;BME280;65885;55.848;35.916;2023-05-07T09:21:59;100592.78;;;17.51;23.31
76940;BME280;65885;55.848;35.916;2023-05-07T09:24:28;100595.59;;;17.48;21.62
76940;BME280;65885;55.848;35.916;2023-05-07T09:27:00;100600.28;;;17.26;21.33
76940;BME280;65885;55.848;35.916;2023-05-07T09:29:28;100597.19;;;16.99;21.78
76940;BME280;65885;55.848;35.916;2023-05-07T09:32:01;100606.00;;;16.63;21.46
76940;BME280;65885;55.848;35.916;2023-05-07T09:34:29;100598.25;;;16.40;22.14
76940;BME280;65885;55.848;35.916;2023-05-07T09:37:00;100599.84;;;16.25;22.67
76940;BME280;65885;55.848;35.916;2023-05-07T09:39:38;100596.63;;;16.18;22.09
76940;BME280;65885;55.848;35.916;2023-05-07T09:42:06;100597.91;;;16.28;24.00
76940;BME280;65885;55.848;35.916;2023-05-07T09:44:34;100592.53;;;16.49;24.10
76940;BME280;65885;55.848;35.916;2023-05-07T09:47:04;100596.53;;;16.76;24.09
76940;BME280;65885;55.848;35.916;2023-05-07T09:49:35;100590.97;;;17.00;22.53
76940;BME280;65885;55.848;35.916;2023-05-07T09:52:06;100578.91;;;17.29;22.91
76940;BME280;65885;55.848;35.916;2023-05-07T09:54:35;100587.34;;;17.54;22.17
76940;BME280;65885;55.848;35.916;2023-05-07T09:57:04;100581.81;;;17.76;22.22
76940;BME280;65885;55.848;35.916;2023-05-07T09:59:33;100582.19;;;18.01;22.67
76940;BME280;65885;55.848;35.916;2023-05-07T10:02:01;100582.53;;;18.11;21.37
76940;BME280;65885;55.848;35.916;2023-05-07T10:04:31;100587.16;;;17.92;20.48
76940;BME280;65885;55.848;35.916;2023-05-07T10:06:58;100585.28;;;17.59;19.94
76940;BME280;65885;55.848;35.916;2023-05-07T10:09:28;100582.03;;;17.19;20.34
76940;BME280;65885;55.848;35.916;2023-05-07T10:11:56;100589.44;;;16.77;20.70
76940;BME280;65885;55.848;35.916;2023-05-07T10:14:24;100579.50;;;16.44;21.63
76940;BME280;65885;55.848;35.916;2023-05-07T10:16:53;100576.53;;;16.33;21.65
76940;BME280;65885;55.848;35.916;2023-05-07T10:19:22;100575.66;;;16.32;22.02
76940;BME280;65885;55.848;35.916;2023-05-07T10:21:54;100575.78;;;16.48;21.96
76940;BME280;65885;55.848;35.916;2023-05-07T10:24:29;100575.69;;;16.69;22.96
76940;BME280;65885;55.848;35.916;2023-05-07T10:27:00;100575.31;;;16.95;21.88
76940;BME280;65885;55.848;35.916;2023-05-07T10:29:33;100577.66;;;17.18;22.88
76940;BME280;65885;55.848;35.916;2023-05-07T10:32:31;100572.97;;;17.41;22.61
76940;BME280;65885;55.848;35.916;2023-05-07T10:35:02;100564.91;;;17.60;21.84
76940;BME280;65885;55.848;35.916;2023-05-07T10:37:31;100573.66;;;17.79;22.25
76940;BME280;65885;55.848;35.916;2023-05-07T10:40:01;100578.06;;;17.96;21.50
76940;BME280;65885;55.848;35.916;2023-05-07T10:42:31;100577.31;;;18.10;21.26
76940;BME280;65885;55.848;35.916;2023-05-07T10:45:11;100572.13;;;18.24;21.23
76940;BME280;65885;55.848;35.916;2023-05-07T10:48:07;100573.84;;;18.41;21.61
76940;BME280;65885;55.848;35.916;2023-05-07T10:50:35;100566.22;;;18.66;22.61
76940;BME280;65885;55.848;35.916;2023-05-07T10:53:23;100559.47;;;19.06;22.70
76940;BME280;65885;55.848;35.916;2023-05-07T10:56:26;100573.81;;;19.48;21.23
76940;BME280;65885;55.848;35.916;2023-05-07T10:58:54;100565.31;;;19.72;20.27
76940;BME280;65885;55.848;35.916;2023-05-07T11:01:49;100569.44;;;19.77;20.15
76940;BME280;65885;55.848;35.916;2023-05-07T11:04:18;100562.66;;;19.72;18.23
76940;BME280;65885;55.848;35.916;2023-05-07T11:07:29;100576.97;;;19.55;18.87
76940;BME280;65885;55.848;35.916;2023-05-07T11:10:01;100569.22;;;19.22;18.80
76940;BME280;65885;55.848;35.916;2023-05-07T11:12:52;100565.78;;;18.74;18.42
76940;BME280;65885;55.848;35.916;2023-05-07T11:15:43;100571.41;;;18.20;19.11
76940;BME280;65885;55.848;35.916;2023-05-07T11:18:12;100573.13;;;17.72;19.78
76940;BME280;65885;55.848;35.916;2023-05-07T11:20:56;100574.31;;;17.32;19.74
76940;BME280;65885;55.848;35.916;2023-05-07T11:23:56;100577.66;;;17.18;20.56
76940;BME280;65885;55.848;35.916;2023-05-07T11:26:47;100576.41;;;17.08;20.47
76940;BME280;65885;55.848;35.916;2023-05-07T11:29:17;100578.94;;;16.92;20.17
76940;BME280;65885;55.848;35.916;2023-05-07T11:31:48;100578.47;;;16.65;20.11
76940;BME280;65885;55.848;35.916;2023-05-07T11:34:21;100579.00;;;16.36;20.52
76940;BME280;65885;55.848;35.916;2023-05-07T11:36:49;100579.06;;;16.16;21.07
76940;BME280;65885;55.848;35.916;2023-05-07T11:39:30;100571.19;;;16.14;21.60
76940;BME280;65885;55.848;35.916;2023-05-07T11:41:59;100570.84;;;16.22;21.82
76940;BME280;65885;55.848;35.916;2023-05-07T11:44:41;100568.75;;;16.47;22.18
76940;BME280;65885;55.848;35.916;2023-05-07T11:47:10;100560.09;;;16.81;21.98
76940;BME280;65885;55.848;35.916;2023-05-07T11:49:37;100562.81;;;17.14;21.31
76940;BME280;65885;55.848;35.916;2023-05-07T11:52:06;100555.59;;;17.35;20.58
76940;BME280;65885;55.848;35.916;2023-05-07T11:54:37;100558.28;;;17.51;20.61
76940;BME280;65885;55.848;35.916;2023-05-07T11:57:05;100564.50;;;17.67;20.61
76940;BME280;65885;55.848;35.916;2023-05-07T11:59:39;100562.47;;;17.90;20.42
76940;BME280;65885;55.848;35.916;2023-05-07T12:02:10;100561.22;;;18.13;20.40
76940;BME280;65885;55.848;35.916;2023-05-07T12:04:41;100553.53;;;18.40;20.41
76940;BME280;65885;55.848;35.916;2023-05-07T12:07:14;100553.63;;;18.70;20.22
76940;BME280;65885;55.848;35.916;2023-05-07T12:09:46;100561.31;;;18.90;18.98
76940;BME280;65885;55.848;35.916;2023-05-07T12:12:14;100561.53;;;19.01;18.91
76940;BME280;65885;55.848;35.916;2023-05-07T12:14:44;100547.03;;;19.07;19.14
76940;BME280;65885;55.848;35.916;2023-05-07T12:17:14;100549.44;;;18.96;18.52
76940;BME280;65885;55.848;35.916;2023-05-07T12:19:45;100549.25;;;18.84;19.12
76940;BME280;65885;55.848;35.916;2023-05-07T12:22:13;100549.16;;;18.70;18.84
76940;BME280;65885;55.848;35.916;2023-05-07T12:24:44;100559.69;;;18.40;18.68
76940;BME280;65885;55.848;35.916;2023-05-07T12:27:14;100555.47;;;18.05;18.95
76940;BME280;65885;55.848;35.916;2023-05-07T12:29:45;100553.59;;;17.73;19.44
76940;BME280;65885;55.848;35.916;2023-05-07T12:32:15;100553.25;;;17.46;19.45
76940;BME280;65885;55.848;35.916;2023-05-07T12:34:43;100558.47;;;17.13;19.94
76940;BME280;65885;55.848;35.916;2023-05-07T12:37:11;100547.69;;;16.82;20.43
76940;BME280;65885;55.848;35.916;2023-05-07T12:39:44;100556.03;;;16.55;20.30
76940;BME280;65885;55.848;35.916;2023-05-07T12:42:15;100564.50;;;16.26;20.45
76940;BME280;65885;55.848;35.916;2023-05-07T12:44:46;100555.09;;;16.00;20.48
76940;BME280;65885;55.848;35.916;2023-05-07T12:47:16;100557.34;;;15.70;20.85
76940;BME280;65885;55.848;35.916;2023-05-07T12:49:44;100553.09;;;15.45;21.05
76940;BME280;65885;55.848;35.916;2023-05-07T12:52:14;100555.72;;;15.26;21.09
76940;BME280;65885;55.848;35.916;2023-05-07T12:54:44;100559.09;;;15.08;21.50